createdAt,value
2019-03-08T00:00:01.090Z,16
2019-03-08T00:01:01.091Z,18
2019-03-08T00:03:01.090Z,20
2019-03-08T00:06:01.115Z,21
2019-03-08T00:09:01.119Z,19
2019-03-08T00:11:01.098Z,17
2019-03-08T00:13:01.091Z,18
2019-03-08T00:15:06.110Z,19
2019-03-08T00:17:01.091Z,20
2019-03-08T00:18:01.092Z,18
2019-03-08T00:19:01.125Z,19
2019-03-08T00:20:01.092Z,18
2019-03-08T00:21:01.093Z,17
2019-03-08T00:22:01.093Z,18
2019-03-08T00:23:01.091Z,19
2019-03-08T00:24:01.125Z,18
2019-03-08T00:25:01.090Z,17
2019-03-08T00:27:01.092Z,16
2019-03-08T00:28:01.089Z,18
2019-03-08T00:30:06.089Z,19
2019-03-08T00:32:01.092Z,20
2019-03-08T00:33:01.091Z,17
2019-03-08T00:34:01.092Z,16
2019-03-08T00:36:01.117Z,17
2019-03-08T00:37:01.090Z,16
2019-03-08T00:38:01.096Z,17
2019-03-08T00:41:01.119Z,18
2019-03-08T00:42:01.094Z,19
2019-03-08T00:43:01.096Z,20
2019-03-08T00:44:01.120Z,18
2019-03-08T00:45:01.094Z,18
2019-03-08T00:46:01.095Z,16
2019-03-08T00:47:01.094Z,14
2019-03-08T00:49:01.120Z,15
2019-03-08T00:50:01.107Z,16
2019-03-08T00:52:01.081Z,17
2019-03-08T00:54:01.114Z,19
2019-03-08T00:56:01.085Z,20
2019-03-08T00:57:01.082Z,19
2019-03-08T00:58:02.091Z,20
2019-03-08T00:59:01.088Z,18
2019-03-08T01:00:06.086Z,18
2019-03-08T01:01:01.083Z,17
2019-03-08T01:03:01.094Z,14
2019-03-08T01:04:01.083Z,16
2019-03-08T01:05:01.083Z,15
2019-03-08T01:06:01.115Z,14
2019-03-08T01:07:01.084Z,15
2019-03-08T01:08:01.083Z,17
2019-03-08T01:09:01.085Z,15
2019-03-08T01:10:01.084Z,16
2019-03-08T01:11:01.086Z,17
2019-03-08T01:12:01.118Z,16
2019-03-08T01:15:01.088Z,18
2019-03-08T01:16:01.122Z,19
2019-03-08T01:18:01.116Z,18
2019-03-08T01:19:01.083Z,19
2019-03-08T01:20:01.091Z,18
2019-03-08T01:21:01.083Z,16
2019-03-08T01:23:01.083Z,17
2019-03-08T01:25:01.088Z,16
2019-03-08T01:26:01.084Z,17
2019-03-08T01:27:01.084Z,16
2019-03-08T01:28:01.083Z,17
2019-03-08T01:29:01.116Z,15
2019-03-08T01:30:01.085Z,17
2019-03-08T01:31:01.084Z,16
2019-03-08T01:32:01.087Z,17
2019-03-08T01:33:01.085Z,18
2019-03-08T01:34:01.085Z,19
2019-03-08T01:35:01.116Z,18
2019-03-08T01:36:01.082Z,20
2019-03-08T01:38:01.083Z,18
2019-03-08T01:39:01.086Z,17
2019-03-08T01:40:01.084Z,18
2019-03-08T01:42:01.115Z,19
2019-03-08T01:43:01.118Z,20
2019-03-08T01:44:01.081Z,21
2019-03-08T01:45:01.049Z,21
2019-03-08T01:47:01.082Z,19
2019-03-08T01:48:01.114Z,20
2019-03-08T01:49:01.082Z,18
2019-03-08T01:50:01.081Z,17
2019-03-08T01:51:01.082Z,16
2019-03-08T01:52:01.083Z,15
2019-03-08T01:53:01.083Z,14
2019-03-08T01:54:01.115Z,15
2019-03-08T01:55:01.088Z,16
2019-03-08T01:56:01.083Z,18
2019-03-08T01:57:01.083Z,17
2019-03-08T02:00:01.118Z,15
2019-03-08T02:01:01.086Z,16
2019-03-08T02:02:01.086Z,18
2019-03-08T02:03:01.085Z,19
2019-03-08T02:04:01.087Z,17
2019-03-08T02:05:01.085Z,18
2019-03-08T02:06:01.125Z,16
2019-03-08T02:08:02.137Z,15
2019-03-08T02:10:01.085Z,14
2019-03-08T02:11:01.086Z,15
2019-03-08T02:14:01.085Z,17
2019-03-08T02:15:01.093Z,17
2019-03-08T02:17:01.084Z,16
2019-03-08T02:18:01.112Z,18
2019-03-08T02:19:01.085Z,15
2019-03-08T02:22:01.090Z,16
2019-03-08T02:24:01.113Z,17
2019-03-08T02:25:01.088Z,18
2019-03-08T02:27:01.086Z,19
2019-03-08T02:28:01.113Z,18
2019-03-08T02:29:01.088Z,19
2019-03-08T02:30:01.088Z,18
2019-03-08T02:31:01.090Z,19
2019-03-08T02:33:01.111Z,18
2019-03-08T02:35:01.097Z,16
2019-03-08T02:36:01.655Z,17
2019-03-08T02:39:01.111Z,19
2019-03-08T02:41:01.087Z,18
2019-03-08T02:42:01.112Z,16
2019-03-08T02:44:01.089Z,13
2019-03-08T02:45:01.090Z,15
2019-03-08T02:46:01.089Z,16
2019-03-08T02:48:01.114Z,17
2019-03-08T02:49:01.092Z,18
2019-03-08T02:50:01.533Z,16
2019-03-08T02:51:01.094Z,13
2019-03-08T02:52:01.117Z,15
2019-03-08T02:53:01.092Z,18
2019-03-08T02:55:01.091Z,19
2019-03-08T02:57:01.126Z,21
2019-03-08T02:58:01.097Z,18
2019-03-08T03:00:01.102Z,18
2019-03-08T03:01:01.094Z,20
2019-03-08T03:02:01.126Z,17
2019-03-08T03:03:01.099Z,19
2019-03-08T03:04:01.094Z,17
2019-03-08T03:05:01.100Z,18
2019-03-08T03:09:02.028Z,15
2019-03-08T03:10:01.081Z,17
2019-03-08T03:12:01.078Z,16
2019-03-08T03:13:01.113Z,15
2019-03-08T03:14:01.078Z,16
2019-03-08T03:15:01.079Z,15
2019-03-08T03:16:01.078Z,16
2019-03-08T03:17:01.085Z,17
2019-03-08T03:18:01.081Z,18
2019-03-08T03:19:01.104Z,19
2019-03-08T03:21:01.079Z,18
2019-03-08T03:22:01.081Z,19
2019-03-08T03:24:01.123Z,18
2019-03-08T03:25:01.081Z,19
2019-03-08T03:26:01.080Z,18
2019-03-08T03:28:01.080Z,19
2019-03-08T03:30:01.107Z,17
2019-03-08T03:31:01.089Z,18
2019-03-08T03:32:01.086Z,16
2019-03-08T03:35:01.116Z,17
2019-03-08T03:36:02.082Z,18
2019-03-08T03:37:06.084Z,19
2019-03-08T03:38:01.081Z,17
2019-03-08T03:40:01.084Z,18
2019-03-08T03:42:01.109Z,19
2019-03-08T03:43:01.084Z,18
2019-03-08T03:44:01.085Z,19
2019-03-08T03:45:01.085Z,18
2019-03-08T03:46:01.120Z,19
2019-03-08T03:47:01.088Z,17
2019-03-08T03:48:01.084Z,16
2019-03-08T03:50:01.084Z,15
2019-03-08T03:52:01.109Z,16
2019-03-08T03:53:01.084Z,17
2019-03-08T03:54:01.083Z,16
2019-03-08T03:56:01.083Z,17
2019-03-08T03:57:01.110Z,15
2019-03-08T03:59:01.084Z,14
2019-03-08T04:00:01.097Z,15
2019-03-08T04:01:01.088Z,14
2019-03-08T04:02:01.116Z,15
2019-03-08T04:05:01.086Z,14
2019-03-08T04:06:01.085Z,13
2019-03-08T04:07:01.086Z,12
2019-03-08T04:09:01.110Z,13
2019-03-08T04:10:01.094Z,15
2019-03-08T04:11:01.084Z,16
2019-03-08T04:12:01.110Z,17
2019-03-08T04:14:01.090Z,16
2019-03-08T04:15:01.090Z,16
2019-03-08T04:16:01.085Z,18
2019-03-08T04:18:01.113Z,20
2019-03-08T04:20:01.086Z,19
2019-03-08T04:21:01.086Z,16
2019-03-08T04:22:01.110Z,15
2019-03-08T04:23:01.086Z,16
2019-03-08T04:24:01.086Z,17
2019-03-08T04:25:01.087Z,15
2019-03-08T04:26:01.091Z,17
2019-03-08T04:27:01.112Z,19
2019-03-08T04:28:01.088Z,17
2019-03-08T04:29:01.091Z,18
2019-03-08T04:30:01.090Z,20
2019-03-08T04:32:01.112Z,18
2019-03-08T04:33:01.088Z,19
2019-03-08T04:34:01.088Z,17
2019-03-08T04:35:01.109Z,16
2019-03-08T04:36:01.650Z,17
2019-03-08T04:39:01.113Z,20
2019-03-08T04:41:01.088Z,19
2019-03-08T04:43:01.126Z,18
2019-03-08T04:44:01.092Z,16
2019-03-08T04:45:01.089Z,15
2019-03-08T04:46:01.087Z,16
2019-03-08T04:47:01.089Z,17
2019-03-08T04:49:01.122Z,18
2019-03-08T04:50:01.090Z,17
2019-03-08T04:51:01.090Z,16
2019-03-08T04:52:01.091Z,14
2019-03-08T04:54:01.116Z,13
2019-03-08T04:55:01.090Z,14
2019-03-08T04:56:01.090Z,15
2019-03-08T04:59:01.118Z,14
2019-03-08T05:00:01.092Z,14
2019-03-08T05:01:01.093Z,13
2019-03-08T05:03:01.122Z,15
2019-03-08T05:04:01.094Z,17
2019-03-08T05:05:01.511Z,18
2019-03-08T05:07:06.094Z,19
2019-03-08T05:10:01.096Z,17
2019-03-08T05:11:01.128Z,16
2019-03-08T05:12:01.097Z,15
2019-03-08T05:14:01.099Z,14
2019-03-08T05:15:01.094Z,17
2019-03-08T05:16:06.091Z,18
2019-03-08T05:17:03.207Z,19
2019-03-08T05:19:01.094Z,20
2019-03-08T05:21:01.119Z,19
2019-03-08T05:22:01.099Z,18
2019-03-08T05:24:01.094Z,16
2019-03-08T05:25:01.093Z,15
2019-03-08T05:26:01.091Z,17
2019-03-08T05:27:01.096Z,19
2019-03-08T05:28:01.094Z,20
2019-03-08T05:30:01.095Z,20
2019-03-08T05:32:01.096Z,17
2019-03-08T05:33:01.093Z,16
2019-03-08T05:35:01.884Z,15
2019-03-08T05:36:06.096Z,16
2019-03-08T05:37:01.098Z,15
2019-03-08T05:38:01.101Z,17
2019-03-08T05:39:01.095Z,16
2019-03-08T05:40:01.097Z,18
2019-03-08T05:41:06.098Z,17
2019-03-08T05:43:01.078Z,16
2019-03-08T05:44:01.078Z,15
2019-03-08T05:45:01.078Z,17
2019-03-08T05:46:01.111Z,16
2019-03-08T05:47:01.079Z,15
2019-03-08T05:48:01.080Z,17
2019-03-08T05:49:01.079Z,16
2019-03-08T05:50:01.080Z,14
2019-03-08T05:51:01.082Z,15
2019-03-08T05:52:01.112Z,16
2019-03-08T05:54:01.080Z,14
2019-03-08T05:55:01.088Z,15
2019-03-08T05:57:01.119Z,16
2019-03-08T05:59:01.079Z,18
2019-03-08T06:00:01.080Z,17
2019-03-08T06:01:01.081Z,18
2019-03-08T06:02:01.096Z,15
2019-03-08T06:04:01.079Z,14
2019-03-08T06:05:01.081Z,13
2019-03-08T06:06:01.080Z,14
2019-03-08T06:07:01.119Z,16
2019-03-08T06:08:01.105Z,17
2019-03-08T06:09:02.114Z,19
2019-03-08T06:10:01.081Z,20
2019-03-08T06:14:01.146Z,19
2019-03-08T06:15:01.083Z,19
2019-03-08T06:17:01.086Z,17
2019-03-08T06:20:01.084Z,16
2019-03-08T06:21:01.084Z,15
2019-03-08T06:22:01.085Z,16
2019-03-08T06:23:01.084Z,17
2019-03-08T06:24:01.093Z,16
2019-03-08T06:25:01.085Z,17
2019-03-08T06:26:01.086Z,18
2019-03-08T06:27:01.085Z,17
2019-03-08T06:29:01.086Z,16
2019-03-08T06:30:01.086Z,15
2019-03-08T06:32:01.088Z,16
2019-03-08T06:33:01.088Z,17
2019-03-08T06:34:06.095Z,18
2019-03-08T06:35:01.087Z,19
2019-03-08T06:38:01.089Z,20
2019-03-08T06:39:01.084Z,19
2019-03-08T06:40:01.120Z,18
2019-03-08T06:42:01.091Z,19
2019-03-08T06:43:01.089Z,17
2019-03-08T06:44:01.097Z,18
2019-03-08T06:45:06.090Z,18
2019-03-08T06:47:01.089Z,19
2019-03-08T06:48:03.121Z,18
2019-03-08T06:49:01.496Z,19
2019-03-08T06:51:01.093Z,20
2019-03-08T06:52:01.087Z,18
2019-03-08T06:55:01.088Z,19
2019-03-08T06:56:01.092Z,17
2019-03-08T06:58:01.098Z,18
2019-03-08T06:59:01.094Z,16
2019-03-08T07:00:06.089Z,16
2019-03-08T07:01:01.090Z,19
2019-03-08T07:02:01.091Z,17
2019-03-08T07:03:01.090Z,16
2019-03-08T07:04:01.091Z,18
2019-03-08T07:06:01.094Z,16
2019-03-08T07:09:01.097Z,17
2019-03-08T07:12:01.097Z,18
2019-03-08T07:13:03.453Z,19
2019-03-08T07:14:01.092Z,16
2019-03-08T07:15:06.094Z,17
2019-03-08T07:17:01.096Z,15
2019-03-08T07:19:01.096Z,17
2019-03-08T07:20:01.098Z,15
2019-03-08T07:21:01.095Z,16
2019-03-08T07:22:01.102Z,17
2019-03-08T07:23:06.095Z,18
2019-03-08T07:25:01.095Z,17
2019-03-08T07:26:01.094Z,16
2019-03-08T07:28:01.128Z,15
2019-03-08T07:30:01.095Z,17
2019-03-08T07:31:01.096Z,16
2019-03-08T07:32:01.095Z,18
2019-03-08T07:34:01.100Z,19
2019-03-08T07:35:01.094Z,17
2019-03-08T07:37:01.094Z,16
2019-03-08T07:40:01.097Z,18
2019-03-08T07:42:01.186Z,17
2019-03-08T07:43:01.063Z,16
2019-03-08T07:45:06.115Z,16
2019-03-08T07:48:06.098Z,15
2019-03-08T07:49:01.104Z,16
2019-03-08T07:50:01.097Z,15
2019-03-08T07:51:01.097Z,16
2019-03-08T07:53:01.080Z,17
2019-03-08T07:55:01.085Z,16
2019-03-08T07:58:01.047Z,17
2019-03-08T08:00:01.087Z,18
2019-03-08T08:02:01.085Z,16
2019-03-08T08:04:01.108Z,18
2019-03-08T08:05:01.079Z,19
2019-03-08T08:06:01.207Z,21
2019-03-08T08:07:01.081Z,22
2019-03-08T08:09:01.112Z,21
2019-03-08T08:10:01.085Z,20
2019-03-08T08:11:01.080Z,17
2019-03-08T08:12:01.080Z,16
2019-03-08T08:13:01.082Z,17
2019-03-08T08:15:01.106Z,17
2019-03-08T08:16:01.083Z,16
2019-03-08T08:17:01.081Z,18
2019-03-08T08:18:01.082Z,17
2019-03-08T08:21:01.287Z,16
2019-03-08T08:22:01.084Z,17
2019-03-08T08:27:01.084Z,15
2019-03-08T08:29:01.086Z,14
2019-03-08T08:30:01.107Z,13
2019-03-08T08:31:01.082Z,15
2019-03-08T08:32:01.083Z,17
2019-03-08T08:33:01.086Z,16
2019-03-08T08:34:01.084Z,17
2019-03-08T08:35:01.134Z,18
2019-03-08T08:36:01.090Z,17
2019-03-08T08:37:01.085Z,16
2019-03-08T08:42:01.083Z,17
2019-03-08T08:43:01.083Z,18
2019-03-08T08:44:01.179Z,16
2019-03-08T08:45:01.084Z,17
2019-03-08T08:46:01.084Z,18
2019-03-08T08:48:01.083Z,17
2019-03-08T08:49:01.085Z,16
2019-03-08T08:50:01.086Z,14
2019-03-08T08:52:01.091Z,15
2019-03-08T08:53:01.097Z,14
2019-03-08T08:54:01.086Z,15
2019-03-08T08:55:01.086Z,16
2019-03-08T08:56:01.112Z,15
2019-03-08T08:58:01.090Z,16
2019-03-08T09:00:01.084Z,16
2019-03-08T09:01:01.112Z,18
2019-03-08T09:03:01.087Z,17
2019-03-08T09:05:01.437Z,18
2019-03-08T09:08:01.114Z,19
2019-03-08T09:09:01.088Z,18
2019-03-08T09:10:01.086Z,17
2019-03-08T09:12:01.079Z,18
2019-03-08T09:13:01.086Z,17
2019-03-08T09:14:01.994Z,19
2019-03-08T09:15:01.085Z,21
2019-03-08T09:19:01.114Z,22
2019-03-08T09:20:01.092Z,19
2019-03-08T09:21:01.114Z,20
2019-03-08T09:23:01.089Z,19
2019-03-08T09:24:01.105Z,18
2019-03-08T09:25:01.092Z,19
2019-03-08T09:26:01.115Z,18
2019-03-08T09:27:01.089Z,16
2019-03-08T09:28:01.088Z,18
2019-03-08T09:30:01.088Z,18
2019-03-08T09:32:01.113Z,21
2019-03-08T09:34:01.125Z,20
2019-03-08T09:35:01.102Z,21
2019-03-08T09:36:01.095Z,20
2019-03-08T09:37:01.096Z,18
2019-03-08T09:38:01.089Z,16
2019-03-08T09:39:01.123Z,15
2019-03-08T09:41:01.095Z,17
2019-03-08T09:42:01.091Z,16
2019-03-08T09:43:01.979Z,19
2019-03-08T09:45:01.116Z,17
2019-03-08T09:46:01.091Z,18
2019-03-08T09:48:01.090Z,16
2019-03-08T09:50:01.125Z,17
2019-03-08T09:52:01.092Z,16
2019-03-08T09:54:01.095Z,18
2019-03-08T09:55:01.133Z,19
2019-03-08T09:56:01.096Z,17
2019-03-08T09:57:01.094Z,18
2019-03-08T09:59:01.096Z,17
2019-03-08T10:00:01.152Z,15
2019-03-08T10:01:01.096Z,17
2019-03-08T10:02:01.097Z,16
2019-03-08T10:03:03.763Z,18
2019-03-08T10:04:01.096Z,17
2019-03-08T10:05:01.130Z,18
2019-03-08T10:06:01.095Z,15
2019-03-08T10:07:01.094Z,16
2019-03-08T10:09:01.097Z,17
2019-03-08T10:10:01.132Z,16
2019-03-08T10:11:01.096Z,18
2019-03-08T10:17:01.087Z,17
2019-03-08T10:21:01.115Z,18
2019-03-08T10:23:01.083Z,17
2019-03-08T10:24:02.913Z,18
2019-03-08T10:25:01.084Z,16
2019-03-08T10:30:01.087Z,16
2019-03-08T10:31:01.085Z,17
2019-03-08T10:33:01.109Z,18
2019-03-08T10:34:01.085Z,17
2019-03-08T10:35:01.090Z,18
2019-03-08T10:36:01.104Z,19
2019-03-08T10:37:01.125Z,17
2019-03-08T10:38:01.087Z,19
2019-03-08T10:39:01.086Z,18
2019-03-08T10:40:01.087Z,16
2019-03-08T10:42:01.087Z,18
2019-03-08T10:43:01.113Z,17
2019-03-08T10:44:08.636Z,18
2019-03-08T10:45:01.095Z,20
2019-03-08T10:46:01.089Z,19
2019-03-08T10:47:01.091Z,18
2019-03-08T10:48:01.115Z,17
2019-03-08T10:49:01.089Z,16
2019-03-08T10:51:01.089Z,17
2019-03-08T10:52:01.088Z,16
2019-03-08T10:53:01.121Z,17
2019-03-08T10:54:01.123Z,18
2019-03-08T10:57:01.088Z,19
2019-03-08T10:59:01.113Z,18
2019-03-08T11:00:01.088Z,18
2019-03-08T11:04:01.121Z,17
2019-03-08T11:05:01.089Z,16
2019-03-08T11:06:01.087Z,15
2019-03-08T11:07:01.085Z,16
2019-03-08T11:08:01.086Z,15
2019-03-08T11:09:01.086Z,17
2019-03-08T11:10:01.085Z,18
2019-03-08T11:11:06.248Z,17
2019-03-08T11:13:01.085Z,18
2019-03-08T11:14:01.090Z,16
2019-03-08T11:15:01.086Z,15
2019-03-08T11:18:01.088Z,16
2019-03-08T11:19:08.419Z,17
2019-03-08T11:20:01.085Z,15
2019-03-08T11:22:01.087Z,14
2019-03-08T11:25:07.633Z,16
2019-03-08T11:26:01.088Z,18
2019-03-08T11:27:04.882Z,20
2019-03-08T11:30:01.102Z,20
2019-03-08T11:32:01.089Z,18
2019-03-08T11:33:01.092Z,17
2019-03-08T11:34:01.101Z,18
2019-03-08T11:35:01.093Z,17
2019-03-08T11:37:01.057Z,18
2019-03-08T11:39:01.089Z,16
2019-03-08T11:40:06.089Z,15
2019-03-08T11:41:01.091Z,14
2019-03-08T11:42:01.091Z,13
2019-03-08T11:43:01.094Z,14
2019-03-08T11:44:01.094Z,16
2019-03-08T11:45:01.091Z,19
2019-03-08T11:46:01.116Z,18
2019-03-08T11:47:01.094Z,20
2019-03-08T11:48:01.092Z,21
2019-03-08T11:49:01.097Z,20
2019-03-08T11:50:01.092Z,18
2019-03-08T11:51:01.119Z,20
2019-03-08T11:52:01.094Z,18
2019-03-08T11:53:01.094Z,17
2019-03-08T11:54:01.092Z,18
2019-03-08T11:55:01.094Z,16
2019-03-08T11:56:01.116Z,17
2019-03-08T11:57:01.917Z,18
2019-03-08T11:58:01.093Z,19
2019-03-08T11:59:01.091Z,17
2019-03-08T12:00:01.109Z,19
2019-03-08T12:02:01.116Z,20
2019-03-08T12:05:01.093Z,19
2019-03-08T12:06:02.125Z,17
2019-03-08T12:07:01.093Z,15
2019-03-08T12:08:01.095Z,17
2019-03-08T12:09:01.095Z,19
2019-03-08T12:10:01.094Z,18
2019-03-08T12:13:01.096Z,16
2019-03-08T12:14:01.095Z,15
2019-03-08T12:15:01.096Z,16
2019-03-08T12:18:01.096Z,17
2019-03-08T12:19:01.098Z,16
2019-03-08T12:20:01.099Z,17
2019-03-08T12:21:01.368Z,18
2019-03-08T12:23:01.117Z,17
2019-03-08T12:25:01.397Z,16
2019-03-08T12:26:01.083Z,17
2019-03-08T12:27:02.202Z,16
2019-03-08T12:28:01.081Z,18
2019-03-08T12:30:01.089Z,18
2019-03-08T12:31:01.082Z,15
2019-03-08T12:32:01.082Z,14
2019-03-08T12:33:01.094Z,12
2019-03-08T12:34:01.110Z,13
2019-03-08T12:35:01.081Z,14
2019-03-08T12:36:01.083Z,15
2019-03-08T12:37:01.160Z,16
2019-03-08T12:38:01.083Z,17
2019-03-08T12:42:01.082Z,18
2019-03-08T12:43:07.546Z,17
2019-03-08T12:44:01.115Z,18
2019-03-08T12:45:01.085Z,18
2019-03-08T12:46:01.084Z,19
2019-03-08T12:47:01.083Z,20
2019-03-08T12:49:01.084Z,19
2019-03-08T12:50:01.083Z,18
2019-03-08T12:51:01.087Z,17
2019-03-08T12:53:01.084Z,16
2019-03-08T12:54:01.084Z,17
2019-03-08T12:55:01.119Z,16
2019-03-08T12:56:01.100Z,15
2019-03-08T13:00:01.087Z,14
2019-03-08T13:01:01.086Z,16
2019-03-08T13:02:01.086Z,17
2019-03-08T13:03:01.087Z,19
2019-03-08T13:05:02.114Z,20
2019-03-08T13:06:01.087Z,18
2019-03-08T13:07:02.193Z,16
2019-03-08T13:08:01.097Z,15
2019-03-08T13:09:01.054Z,14
2019-03-08T13:11:01.087Z,13
2019-03-08T13:12:01.088Z,15
2019-03-08T13:13:01.098Z,16
2019-03-08T13:14:01.084Z,18
2019-03-08T13:15:01.088Z,18
2019-03-08T13:16:02.693Z,20
2019-03-08T13:17:01.087Z,19
2019-03-08T13:18:01.086Z,18
2019-03-08T13:19:01.087Z,17
2019-03-08T13:21:01.096Z,16
2019-03-08T13:22:01.087Z,15
2019-03-08T13:23:01.086Z,14
2019-03-08T13:25:01.086Z,13
2019-03-08T13:26:01.086Z,14
2019-03-08T13:27:01.086Z,15
2019-03-08T13:28:01.087Z,18
2019-03-08T13:30:01.092Z,18
2019-03-08T13:31:01.089Z,17
2019-03-08T13:32:01.089Z,18
2019-03-08T13:33:01.088Z,17
2019-03-08T13:35:01.091Z,18
2019-03-08T13:36:01.093Z,20
2019-03-08T13:37:01.090Z,21
2019-03-08T13:38:01.115Z,23
2019-03-08T13:39:01.103Z,21
2019-03-08T13:40:01.092Z,20
2019-03-08T13:41:01.124Z,18
2019-03-08T13:42:01.092Z,17
2019-03-08T13:43:01.091Z,15
2019-03-08T13:44:01.560Z,16
2019-03-08T13:45:01.093Z,15
2019-03-08T13:46:01.093Z,16
2019-03-08T13:47:01.116Z,17
2019-03-08T13:48:01.090Z,16
2019-03-08T13:49:01.088Z,17
2019-03-08T13:54:01.090Z,18
2019-03-08T13:55:01.098Z,16
2019-03-08T13:57:01.113Z,17
2019-03-08T13:58:01.088Z,18
2019-03-08T13:59:01.089Z,17
2019-03-08T14:00:01.097Z,18
2019-03-08T14:02:01.093Z,17
2019-03-08T14:03:01.088Z,16
2019-03-08T14:05:01.088Z,15
2019-03-08T14:07:01.090Z,14
2019-03-08T14:08:01.089Z,16
2019-03-08T14:11:01.090Z,17
2019-03-08T14:13:01.087Z,14
2019-03-08T14:14:01.088Z,16
2019-03-08T14:15:01.089Z,18
2019-03-08T14:16:01.089Z,16
2019-03-08T14:17:01.099Z,17
2019-03-08T14:18:01.092Z,18
2019-03-08T14:19:01.088Z,16
2019-03-08T14:20:01.089Z,15
2019-03-08T14:22:01.091Z,14
2019-03-08T14:23:01.090Z,16
2019-03-08T14:24:01.093Z,18
2019-03-08T14:25:01.092Z,17
2019-03-08T14:26:01.092Z,19
2019-03-08T14:27:01.091Z,21
2019-03-08T14:28:01.091Z,18
2019-03-08T14:29:01.097Z,16
2019-03-08T14:30:01.092Z,14
2019-03-08T14:32:01.093Z,12
2019-03-08T14:34:01.095Z,16
2019-03-08T14:35:01.099Z,17
2019-03-08T14:38:01.095Z,18
2019-03-08T14:39:04.126Z,15
2019-03-08T14:40:01.092Z,16
2019-03-08T14:41:01.091Z,17
2019-03-08T14:42:03.663Z,18
2019-03-08T14:44:01.094Z,20
2019-03-08T14:45:07.605Z,19
2019-03-08T14:46:01.103Z,18
2019-03-08T14:48:01.094Z,19
2019-03-08T14:50:01.121Z,18
2019-03-08T14:51:01.096Z,17
2019-03-08T14:52:01.123Z,18
2019-03-08T14:53:01.094Z,19
2019-03-08T14:54:01.094Z,18
2019-03-08T14:55:01.097Z,20
2019-03-08T14:56:01.097Z,18
2019-03-08T14:58:01.096Z,17
2019-03-08T14:59:01.062Z,18
2019-03-08T15:00:01.110Z,17
2019-03-08T15:02:01.106Z,18
2019-03-08T15:03:01.080Z,17
2019-03-08T15:04:01.083Z,16
2019-03-08T15:05:10.644Z,14
2019-03-08T15:08:01.078Z,15
2019-03-08T15:09:01.085Z,16
2019-03-08T15:10:02.244Z,18
2019-03-08T15:11:01.080Z,17
2019-03-08T15:13:01.080Z,16
2019-03-08T15:14:01.086Z,15
2019-03-08T15:15:01.085Z,15
2019-03-08T15:17:08.824Z,16
2019-03-08T15:21:01.085Z,19
2019-03-08T15:22:01.087Z,20
2019-03-08T15:24:01.113Z,19
2019-03-08T15:26:01.085Z,17
2019-03-08T15:27:01.087Z,16
2019-03-08T15:28:06.082Z,17
2019-03-08T15:30:01.095Z,19
2019-03-08T15:31:01.087Z,20
2019-03-08T15:32:01.085Z,19
2019-03-08T15:34:01.085Z,20
2019-03-08T15:35:01.085Z,17
2019-03-08T15:36:01.084Z,15
2019-03-08T15:37:01.085Z,16
2019-03-08T15:38:01.110Z,15
2019-03-08T15:39:01.091Z,14
2019-03-08T15:40:01.092Z,16
2019-03-08T15:41:01.185Z,19
2019-03-08T15:42:02.326Z,20
2019-03-08T15:44:01.091Z,21
2019-03-08T15:45:01.681Z,20
2019-03-08T15:46:01.092Z,18
2019-03-08T15:47:01.092Z,16
2019-03-08T15:48:06.089Z,18
2019-03-08T15:49:01.092Z,17
2019-03-08T15:53:01.097Z,16
2019-03-08T15:58:01.094Z,15
2019-03-08T15:59:01.091Z,16
2019-03-08T16:00:01.102Z,16
2019-03-08T16:01:01.090Z,15
2019-03-08T16:03:01.174Z,18
2019-03-08T16:04:01.721Z,17
2019-03-08T16:06:02.879Z,19
2019-03-08T16:07:01.089Z,22
2019-03-08T16:08:01.625Z,19
2019-03-08T16:10:01.090Z,18
2019-03-08T16:12:01.090Z,16
2019-03-08T16:15:01.090Z,15
2019-03-08T16:16:01.092Z,14
2019-03-08T16:18:01.089Z,15
2019-03-08T16:20:02.789Z,17
2019-03-08T16:22:06.095Z,16
2019-03-08T16:24:01.093Z,17
2019-03-08T16:26:01.099Z,16
2019-03-08T16:27:02.260Z,17
2019-03-08T16:29:01.094Z,16
2019-03-08T16:30:06.853Z,16
2019-03-08T16:32:06.097Z,17
2019-03-08T16:33:01.096Z,18
2019-03-08T16:34:01.091Z,17
2019-03-08T16:35:01.094Z,16
2019-03-08T16:36:01.057Z,18
2019-03-08T16:38:06.088Z,16
2019-03-08T16:39:01.092Z,17
2019-03-08T16:41:01.093Z,16
2019-03-08T16:42:01.093Z,15
2019-03-08T16:43:03.676Z,17
2019-03-08T16:44:01.102Z,18
2019-03-08T16:45:01.105Z,18
2019-03-08T16:46:01.182Z,19
2019-03-08T16:48:06.095Z,17
2019-03-08T16:49:01.094Z,16
2019-03-08T16:51:01.234Z,17
2019-03-08T16:52:01.379Z,18
2019-03-08T16:53:06.092Z,17
2019-03-08T16:54:01.100Z,19
2019-03-08T16:55:01.099Z,18
2019-03-08T16:57:01.101Z,17
2019-03-08T16:59:01.079Z,18
2019-03-08T17:00:01.094Z,17
2019-03-08T17:01:01.081Z,16
2019-03-08T17:04:01.113Z,17
2019-03-08T17:06:01.093Z,19
2019-03-08T17:07:01.079Z,18
2019-03-08T17:09:01.080Z,17
2019-03-08T17:10:01.080Z,18
2019-03-08T17:11:01.613Z,19
2019-03-08T17:13:01.082Z,18
2019-03-08T17:15:01.085Z,19
2019-03-08T17:16:01.083Z,18
2019-03-08T17:17:01.086Z,17
2019-03-08T17:18:01.145Z,16
2019-03-08T17:20:01.091Z,15
2019-03-08T17:21:01.089Z,14
2019-03-08T17:22:01.081Z,16
2019-03-08T17:23:01.081Z,17
2019-03-08T17:26:01.081Z,18
2019-03-08T17:27:01.145Z,17
2019-03-08T17:28:01.147Z,18
2019-03-08T17:30:01.084Z,19
2019-03-08T17:31:01.084Z,18
2019-03-08T17:33:01.052Z,17
2019-03-08T17:34:01.101Z,15
2019-03-08T17:35:01.085Z,14
2019-03-08T17:36:01.084Z,13
2019-03-08T17:37:01.085Z,15
2019-03-08T17:38:01.096Z,14
2019-03-08T17:39:01.110Z,15
2019-03-08T17:40:01.087Z,17
2019-03-08T17:41:01.084Z,19
2019-03-08T17:42:01.087Z,18
2019-03-08T17:44:01.113Z,19
2019-03-08T17:45:01.085Z,19
2019-03-08T17:46:01.087Z,17
2019-03-08T17:47:01.089Z,16
2019-03-08T17:48:01.153Z,17
2019-03-08T17:49:01.109Z,16
2019-03-08T17:50:01.085Z,14
2019-03-08T17:51:01.086Z,15
2019-03-08T17:52:01.086Z,18
2019-03-08T17:55:01.087Z,17
2019-03-08T17:56:01.088Z,16
2019-03-08T17:57:01.088Z,14
2019-03-08T17:59:01.207Z,13
2019-03-08T18:00:01.089Z,13
2019-03-08T18:01:01.089Z,15
2019-03-08T18:02:01.098Z,16
2019-03-08T18:07:01.097Z,14
2019-03-08T18:08:01.118Z,13
2019-03-08T18:09:01.096Z,15
2019-03-08T18:10:01.090Z,16
2019-03-08T18:11:01.090Z,15
2019-03-08T18:12:01.090Z,17
2019-03-08T18:13:01.123Z,18
2019-03-08T18:14:01.091Z,17
2019-03-08T18:15:01.113Z,17
2019-03-08T18:17:01.090Z,16
2019-03-08T18:18:01.118Z,14
2019-03-08T18:21:01.093Z,13
2019-03-08T18:23:01.099Z,15
2019-03-08T18:25:01.095Z,16
2019-03-08T18:26:01.093Z,18
2019-03-08T18:29:01.094Z,19
2019-03-08T18:30:06.093Z,18
2019-03-08T18:31:01.096Z,16
2019-03-08T18:33:01.102Z,17
2019-03-08T18:37:01.081Z,18
2019-03-08T18:38:01.081Z,17
2019-03-08T18:39:01.081Z,18
2019-03-08T18:40:01.113Z,15
2019-03-08T18:41:01.082Z,17
2019-03-08T18:44:01.084Z,15
2019-03-08T18:45:06.082Z,17
2019-03-08T18:48:01.083Z,18
2019-03-08T18:49:01.051Z,19
2019-03-08T18:50:01.083Z,20
2019-03-08T18:52:01.109Z,19
2019-03-08T18:53:01.081Z,18
2019-03-08T19:00:01.094Z,19
2019-03-08T19:01:01.084Z,17
2019-03-08T19:02:01.083Z,16
2019-03-08T19:03:01.087Z,15
2019-03-08T19:04:01.087Z,14
2019-03-08T19:05:01.095Z,12
2019-03-08T19:06:02.111Z,14
2019-03-08T19:07:01.085Z,13
2019-03-08T19:08:01.170Z,15
2019-03-08T19:09:01.088Z,16
2019-03-08T19:10:01.087Z,18
2019-03-08T19:11:01.086Z,16
2019-03-08T19:14:01.090Z,17
2019-03-08T19:15:01.099Z,15
2019-03-08T19:16:01.086Z,16
2019-03-08T19:17:01.087Z,17
2019-03-08T19:19:01.093Z,16
2019-03-08T19:20:01.092Z,17
2019-03-08T19:24:01.131Z,18
2019-03-08T19:25:01.133Z,17
2019-03-08T19:26:01.093Z,18
2019-03-08T19:27:01.091Z,16
2019-03-08T19:29:01.168Z,14
2019-03-08T19:30:01.094Z,15
2019-03-08T19:31:01.091Z,16
2019-03-08T19:32:01.090Z,17
2019-03-08T19:33:01.092Z,19
2019-03-08T19:34:01.095Z,20
2019-03-08T19:35:01.093Z,18
2019-03-08T19:37:01.096Z,16
2019-03-08T19:38:01.091Z,17
2019-03-08T19:39:01.092Z,16
2019-03-08T19:41:01.120Z,15
2019-03-08T19:43:01.096Z,13
2019-03-08T19:45:01.096Z,13
2019-03-08T19:46:01.091Z,14
2019-03-08T19:48:01.094Z,15
2019-03-08T19:49:01.118Z,17
2019-03-08T19:50:01.094Z,18
2019-03-08T19:51:01.093Z,19
2019-03-08T19:52:01.094Z,20
2019-03-08T19:53:01.095Z,18
2019-03-08T19:55:01.087Z,17
2019-03-08T19:56:01.086Z,16
2019-03-08T19:57:01.082Z,15
2019-03-08T19:59:01.079Z,16
2019-03-08T20:00:01.089Z,18